Time;durP1;ratioP1;P1;durP2;ratioP2;P2;SDS_P1;SDS_P2;PMS_P1;PMS_P2;Temp;Humidity;BMP_temperature;BMP_pressure;BME280_temperature;BME280_humidity;BME280_pressure;Samples;Min_cycle;Max_cycle;Signal;HPM_P1;HPM_P2
2022/02/14 00:02:19;;;;;;;13.10;7.53;;;;;;;3.20;75.58;97946.44;4858796;29;20120;-82
2022/02/14 00:04:44;;;;;;;11.57;7.47;;;;;;;3.19;75.48;97937.72;4859239;29;20486;-81
2022/02/14 00:07:09;;;;;;;10.10;8.00;;;;;;;3.21;75.44;97937.50;4855308;29;20034;-82
2022/02/14 00:09:35;;;;;;;10.73;7.38;;;;;;;3.28;75.40;97941.66;4859953;29;20029;-82
2022/02/14 00:12:00;;;;;;;11.07;7.72;;;;;;;3.23;75.59;97930.19;4863303;29;20056;-82
2022/02/14 00:14:27;;;;;;;11.68;6.70;;;;;;;3.27;75.33;97924.22;4859100;29;20093;-82
2022/02/14 00:16:53;;;;;;;11.93;6.93;;;;;;;3.24;75.48;97916.75;4857876;29;20030;-81
2022/02/14 00:19:19;;;;;;;11.07;7.95;;;;;;;3.21;75.02;97898.75;4857808;29;20045;-82
2022/02/14 00:21:44;;;;;;;11.23;7.20;;;;;;;3.22;75.75;97902.19;4838958;29;20029;-82
2022/02/14 00:24:10;;;;;;;12.07;6.68;;;;;;;3.20;75.24;97905.06;4857734;29;20041;-82
2022/02/14 00:26:36;;;;;;;11.13;7.43;;;;;;;3.15;75.76;97914.66;4848307;29;20052;-82
2022/02/14 00:29:02;;;;;;;10.70;7.47;;;;;;;3.19;75.97;97907.94;4842405;29;20037;-82
2022/02/14 00:31:27;;;;;;;9.43;6.72;;;;;;;3.13;75.76;97891.16;4860985;29;20041;-81
2022/02/14 00:33:53;;;;;;;12.20;6.85;;;;;;;3.18;75.51;97907.13;4842630;29;20037;-82
2022/02/14 00:36:18;;;;;;;12.90;7.70;;;;;;;3.14;75.13;97894.59;4842499;29;20094;-82
2022/02/14 00:38:43;;;;;;;10.30;7.22;;;;;;;3.15;75.69;97886.47;4839652;29;20490;-82
2022/02/14 00:41:09;;;;;;;12.55;7.45;;;;;;;3.18;75.82;97893.13;4827193;29;20064;-82
2022/02/14 00:43:35;;;;;;;10.57;6.20;;;;;;;3.21;75.30;97895.31;4840390;29;20041;-82
2022/02/14 00:46:00;;;;;;;9.25;6.88;;;;;;;3.23;75.63;97883.53;4852119;29;20120;-82
2022/02/14 00:48:25;;;;;;;8.32;6.45;;;;;;;3.21;75.14;97876.88;4861742;29;20033;-82
2022/02/14 00:50:51;;;;;;;10.10;6.57;;;;;;;3.26;75.32;97872.50;4859017;29;20041;-82
2022/02/14 00:53:17;;;;;;;12.68;6.40;;;;;;;3.27;75.30;97871.50;4858245;29;20635;-82
2022/02/14 00:55:42;;;;;;;14.00;7.00;;;;;;;3.36;74.78;97871.97;4857134;29;20445;-82
2022/02/14 00:58:07;;;;;;;12.10;6.97;;;;;;;3.37;74.88;97882.28;4860923;29;20056;-82
2022/02/14 01:00:33;;;;;;;9.55;5.90;;;;;;;3.32;74.94;97865.53;4858503;29;20044;-82
2022/02/14 01:02:58;;;;;;;15.35;6.88;;;;;;;3.24;75.36;97860.56;4858042;29;20144;-82
2022/02/14 01:05:23;;;;;;;9.40;7.05;;;;;;;3.28;74.96;97859.91;4857459;29;20529;-82
2022/02/14 01:07:48;;;;;;;8.77;5.78;;;;;;;3.29;75.38;97863.34;4840672;29;20036;-82
2022/02/14 01:10:14;;;;;;;9.82;6.38;;;;;;;3.30;75.41;97859.69;4858171;29;20545;-82
2022/02/14 01:12:40;;;;;;;8.02;5.55;;;;;;;3.17;75.57;97841.44;4857870;29;20037;-82
2022/02/14 01:15:07;;;;;;;10.88;5.72;;;;;;;3.29;75.56;97860.72;4856380;29;20049;-82
2022/02/14 01:17:34;;;;;;;9.98;5.68;;;;;;;3.16;75.22;97832.72;4836450;29;20033;-82
2022/02/14 01:20:01;;;;;;;11.98;6.93;;;;;;;3.24;75.41;97844.75;4859667;29;20025;-81
2022/02/14 01:22:26;;;;;;;10.98;5.43;;;;;;;3.20;75.64;97839.16;4839433;29;20037;-81
2022/02/14 01:24:51;;;;;;;9.60;6.32;;;;;;;3.22;75.17;97838.91;4870297;29;20036;-82
2022/02/14 01:27:17;;;;;;;9.45;5.90;;;;;;;3.12;75.83;97828.13;4840481;29;20132;-81
2022/02/14 01:29:42;;;;;;;16.52;6.32;;;;;;;3.22;75.76;97838.91;4858443;29;20124;-81
2022/02/14 01:32:07;;;;;;;8.13;6.30;;;;;;;3.25;75.82;97844.56;4825640;29;20486;-82
2022/02/14 01:34:33;;;;;;;8.35;6.38;;;;;;;3.27;75.86;97833.78;4853168;29;20033;-81
2022/02/14 01:36:59;;;;;;;8.93;5.05;;;;;;;3.20;75.73;97833.06;4841572;29;20340;-81
2022/02/14 01:39:25;;;;;;;7.93;5.20;;;;;;;3.17;76.25;97825.63;4840309;29;20029;-81
2022/02/14 01:41:51;;;;;;;8.55;6.07;;;;;;;3.15;76.02;97822.38;4840674;29;20048;-81
2022/02/14 01:44:36;;;;;;;9.77;6.57;;;;;;;3.19;76.17;97834.09;4840657;29;20033;-82
2022/02/14 01:47:02;;;;;;;7.88;6.53;;;;;;;3.20;76.68;97831.22;4871754;29;20030;-82
2022/02/14 01:49:28;;;;;;;11.52;5.85;;;;;;;3.22;76.46;97820.44;4857504;29;20029;-81
2022/02/14 01:51:53;;;;;;;8.32;5.20;;;;;;;3.23;76.26;97816.81;4858748;29;20045;-81
2022/02/14 01:54:19;;;;;;;9.10;5.85;;;;;;;3.20;76.03;97811.97;4854493;29;20543;-81
2022/02/14 01:56:44;;;;;;;5.50;4.65;;;;;;;3.15;75.92;97796.81;4841410;29;20089;-81
2022/02/14 01:59:09;;;;;;;9.75;5.47;;;;;;;3.26;76.26;97808.41;4858371;29;20037;-81
2022/02/14 02:01:35;;;;;;;7.78;5.55;;;;;;;3.28;75.64;97799.25;4856602;29;20033;-82
2022/02/14 02:04:00;;;;;;;9.50;5.28;;;;;;;3.22;76.10;97788.81;4842229;29;20355;-82
2022/02/14 02:06:25;;;;;;;7.80;5.45;;;;;;;3.21;75.92;97779.31;4856219;29;20033;-82
2022/02/14 02:08:51;;;;;;;11.25;5.97;;;;;;;3.22;75.50;97788.81;4838784;29;20042;-81
2022/02/14 02:14:00;;;;;;;8.98;5.32;;;;;;;3.10;75.97;97759.00;4857333;29;20125;-81
2022/02/14 02:16:25;;;;;;;8.70;5.53;;;;;;;3.11;75.99;97768.50;4856595;29;20117;-81
2022/02/14 02:18:51;;;;;;;10.68;5.45;;;;;;;3.20;76.24;97772.44;4824330;29;20045;-82
2022/02/14 02:21:16;;;;;;;7.13;5.70;;;;;;;3.17;76.45;97762.34;4858167;29;20037;-82
2022/02/14 02:23:42;;;;;;;7.95;5.25;;;;;;;3.22;76.12;97768.53;4836508;29;20038;-81
2022/02/14 02:26:07;;;;;;;8.20;5.85;;;;;;;3.20;75.62;97761.88;4839772;29;20033;-82
2022/02/14 02:28:33;;;;;;;9.20;5.53;;;;;;;3.12;75.52;97755.13;4840547;29;20033;-81
2022/02/14 02:31:06;;;;;;;10.32;5.28;;;;;;;3.14;76.25;97758.34;4861440;29;20152;-81
2022/02/14 02:33:32;;;;;;;10.68;6.18;;;;;;;3.24;75.97;97760.38;4840872;29;20061;-82
2022/02/14 02:36:01;;;;;;;10.13;6.20;;;;;;;3.21;76.08;97756.38;4857773;29;20029;-81
2022/02/14 02:38:26;;;;;;;9.05;5.55;;;;;;;3.14;76.02;97741.72;4859667;29;20482;-82
2022/02/14 02:40:52;;;;;;;10.32;6.28;;;;;;;3.26;75.47;97745.13;4842203;29;20038;-82
2022/02/14 02:43:18;;;;;;;8.18;5.75;;;;;;;3.28;75.66;97758.91;4853566;29;20034;-81
2022/02/14 02:45:44;;;;;;;9.95;6.68;;;;;;;3.19;76.08;97739.19;4874935;29;20120;-82
2022/02/14 02:48:10;;;;;;;8.05;6.22;;;;;;;3.24;75.39;97741.94;4859660;29;20021;-82
2022/02/14 02:50:37;;;;;;;11.38;6.03;;;;;;;3.31;75.62;97743.44;4860432;29;20044;-82
2022/02/14 02:53:21;;;;;;;6.40;5.25;;;;;;;3.17;75.16;97725.44;4860761;29;20041;-82
2022/02/14 02:55:46;;;;;;;10.27;6.68;;;;;;;3.28;75.45;97740.44;4857957;29;20057;-82
2022/02/14 02:58:11;;;;;;;8.00;6.32;;;;;;;3.32;75.20;97734.47;4827903;29;20509;-81
2022/02/14 03:00:37;;;;;;;7.85;5.03;;;;;;;3.17;75.42;97709.63;4859763;29;20037;-82
2022/02/14 03:03:02;;;;;;;12.13;5.63;;;;;;;3.23;75.46;97720.06;4858266;29;20042;-82
2022/02/14 03:05:28;;;;;;;9.07;6.03;;;;;;;3.32;75.18;97733.69;4853462;29;20049;-82
2022/02/14 03:07:53;;;;;;;13.98;6.03;;;;;;;3.26;75.48;97713.50;4858517;29;20082;-82
2022/02/14 03:10:18;;;;;;;8.45;5.95;;;;;;;3.27;75.51;97720.41;4858326;29;20440;-81
2022/02/14 03:12:43;;;;;;;8.25;5.13;;;;;;;3.28;75.26;97704.34;4858642;29;20041;-81
2022/02/14 03:15:09;;;;;;;8.90;5.22;;;;;;;3.32;75.16;97707.34;4840145;29;20041;-82
2022/02/14 03:17:34;;;;;;;8.75;5.05;;;;;;;3.32;75.34;97696.78;4841961;29;20046;-82
2022/02/14 03:19:59;;;;;;;10.25;5.72;;;;;;;3.31;75.33;97703.06;4859445;29;20494;-82
2022/02/14 03:22:26;;;;;;;8.43;5.97;;;;;;;3.27;75.14;97694.03;4875546;29;20085;-82
2022/02/14 03:24:51;;;;;;;8.05;5.78;;;;;;;3.30;75.23;97690.94;4844714;29;20053;-81
2022/02/14 03:27:16;;;;;;;14.70;5.40;;;;;;;3.23;75.63;97687.63;4860002;29;20118;-81
2022/02/14 03:29:42;;;;;;;10.52;5.85;;;;;;;3.24;75.17;97687.38;4859208;29;20060;-82
2022/02/14 03:32:07;;;;;;;6.85;5.13;;;;;;;3.22;75.40;97686.81;4844850;29;20045;-82
2022/02/14 03:34:33;;;;;;;13.13;4.97;;;;;;;3.18;75.38;97683.03;4860714;29;20394;-82
2022/02/14 03:36:58;;;;;;;6.53;5.30;;;;;;;3.25;75.30;97683.72;4840604;29;20090;-82
2022/02/14 03:39:23;;;;;;;8.50;5.47;;;;;;;3.11;75.49;97671.78;4857607;29;20033;-82
2022/02/14 03:41:49;;;;;;;13.95;5.80;;;;;;;3.23;75.40;97677.06;4857396;29;20044;-82
2022/02/14 03:44:14;;;;;;;6.63;5.30;;;;;;;3.23;74.78;97674.44;4857471;29;20097;-82
2022/02/14 03:46:40;;;;;;;11.43;5.60;;;;;;;3.24;74.78;97673.38;4860388;29;20041;-82
2022/02/14 03:49:05;;;;;;;9.63;5.65;;;;;;;3.19;74.52;97662.75;4858018;29;20065;-82
2022/02/14 03:51:31;;;;;;;8.00;5.07;;;;;;;3.09;74.85;97638.78;4843535;29;20494;-82
2022/02/14 03:53:57;;;;;;;7.85;5.40;;;;;;;3.33;74.41;97672.00;4855777;29;20062;-82
2022/02/14 03:56:23;;;;;;;8.07;5.45;;;;;;;3.32;74.42;97673.06;4859207;29;20068;-82
2022/02/14 03:58:48;;;;;;;9.90;6.05;;;;;;;3.25;74.93;97667.91;4842781;29;20044;-82
2022/02/14 04:01:13;;;;;;;9.50;5.38;;;;;;;3.19;75.42;97665.38;4837128;29;20045;-81
2022/02/14 04:03:39;;;;;;;7.00;5.22;;;;;;;3.14;75.83;97667.91;4871393;29;20562;-82
2022/02/14 04:06:04;;;;;;;9.30;5.22;;;;;;;3.11;75.59;97658.59;4825114;29;20033;-82
2022/02/14 04:08:29;;;;;;;11.02;5.57;;;;;;;3.12;75.99;97654.97;4855391;29;20044;-82
2022/02/14 04:10:57;;;;;;;9.30;6.32;;;;;;;3.09;76.20;97650.13;4843437;29;20089;-82
2022/02/14 04:13:22;;;;;;;8.65;5.13;;;;;;;2.98;75.68;97640.41;4858359;29;20565;-82
2022/02/14 04:15:48;;;;;;;13.02;5.75;;;;;;;2.99;75.89;97645.44;4859146;29;20116;-82
2022/02/14 04:18:13;;;;;;;9.07;4.95;;;;;;;2.96;76.08;97643.28;4842777;29;20041;-81
2022/02/14 04:20:39;;;;;;;14.00;6.55;;;;;;;3.09;76.03;97654.59;4855242;29;20026;-82
2022/02/14 04:23:04;;;;;;;8.73;5.85;;;;;;;3.10;76.19;97653.56;4843292;29;20033;-82
2022/02/14 04:25:31;;;;;;;9.13;5.45;;;;;;;3.00;76.15;97641.78;4856211;29;20085;-81
2022/02/14 04:27:56;;;;;;;9.20;5.93;;;;;;;3.03;75.50;97649.22;4858255;29;20108;-81
2022/02/14 04:30:24;;;;;;;10.65;5.38;;;;;;;3.03;76.24;97651.88;4871095;29;20136;-81
2022/02/14 04:32:50;;;;;;;9.18;4.55;;;;;;;3.10;76.13;97650.94;4842296;29;20127;-82
2022/02/14 04:35:15;;;;;;;8.50;4.88;;;;;;;3.01;76.14;97643.38;4842231;29;20133;-81
2022/02/14 04:37:40;;;;;;;10.27;5.05;;;;;;;2.98;76.23;97633.28;4842698;29;20033;-81
2022/02/14 04:40:07;;;;;;;8.35;5.10;;;;;;;3.08;76.06;97648.50;4859457;29;20084;-82
2022/02/14 04:42:32;;;;;;;10.23;5.13;;;;;;;3.09;76.00;97644.06;4857895;29;20085;-82
2022/02/14 04:44:58;;;;;;;9.50;5.45;;;;;;;3.10;76.15;97648.31;4857351;29;20525;-82
2022/02/14 04:47:24;;;;;;;6.85;5.00;;;;;;;3.13;75.66;97645.19;4857357;29;20033;-81
2022/02/14 04:49:49;;;;;;;13.13;5.35;;;;;;;3.11;75.70;97626.16;4838593;29;20402;-82
2022/02/14 04:52:15;;;;;;;13.00;7.65;;;;;;;3.09;75.48;97633.50;4843259;29;20043;-82
2022/02/14 04:54:40;;;;;;;8.43;5.40;;;;;;;3.14;75.72;97642.34;4850365;29;20025;-82
2022/02/14 04:57:05;;;;;;;7.30;5.25;;;;;;;3.13;75.63;97624.91;4843577;29;20080;-82
2022/02/14 04:59:31;;;;;;;12.80;5.45;;;;;;;3.08;75.90;97627.44;4858096;29;20041;-82
2022/02/14 05:01:56;;;;;;;8.15;5.10;;;;;;;3.11;75.07;97632.25;4840536;29;20040;-81
2022/02/14 05:04:22;;;;;;;10.40;5.82;;;;;;;3.09;75.42;97623.78;4839578;29;20036;-81
2022/02/14 05:06:48;;;;;;;9.60;5.00;;;;;;;3.17;75.62;97647.13;4870121;29;20120;-81
2022/02/14 05:09:14;;;;;;;7.47;5.43;;;;;;;3.14;75.90;97644.97;4855940;29;20033;-81
2022/02/14 05:11:39;;;;;;;12.10;5.93;;;;;;;3.16;76.36;97636.84;4850341;29;20390;-81
2022/02/14 05:14:05;;;;;;;7.95;4.93;;;;;;;3.17;75.97;97646.34;4857043;29;20081;-82
2022/02/14 05:16:31;;;;;;;7.38;5.07;;;;;;;3.07;75.91;97636.38;4855297;29;20065;-81
2022/02/14 05:18:56;;;;;;;11.52;5.38;;;;;;;3.15;76.16;97643.94;4840423;29;20113;-82
2022/02/14 05:21:21;;;;;;;5.75;4.95;;;;;;;3.09;76.06;97638.78;4858841;29;20041;-81
2022/02/14 05:23:47;;;;;;;8.30;5.40;;;;;;;3.08;76.65;97639.81;4840606;29;20486;-81
2022/02/14 05:26:12;;;;;;;10.43;5.13;;;;;;;3.18;75.52;97640.03;4844847;29;20517;-82
2022/02/14 05:28:38;;;;;;;8.07;5.20;;;;;;;3.20;75.75;97641.41;4871688;29;20040;-82
2022/02/14 05:31:03;;;;;;;7.88;5.20;;;;;;;3.04;76.42;97623.66;4856494;29;20040;-82
2022/02/14 05:33:29;;;;;;;7.97;5.75;;;;;;;3.07;76.32;97625.84;4855785;29;20378;-82
2022/02/14 05:35:55;;;;;;;10.27;5.68;;;;;;;3.12;76.23;97633.06;4853370;29;20482;-82
2022/02/14 05:38:20;;;;;;;8.23;4.47;;;;;;;3.13;76.43;97634.66;4855071;29;20133;-82
2022/02/14 05:40:46;;;;;;;7.72;5.30;;;;;;;3.13;76.31;97629.38;4871928;29;20034;-82
2022/02/14 05:43:11;;;;;;;7.13;5.05;;;;;;;3.10;76.21;97641.22;4854785;29;20037;-82
2022/02/14 05:45:36;;;;;;;9.20;5.72;;;;;;;3.12;75.92;97633.88;4841888;29;20037;-82
2022/02/14 05:48:02;;;;;;;10.35;4.85;;;;;;;3.12;76.26;97617.25;4855256;29;20439;-82
2022/02/14 05:50:27;;;;;;;8.52;5.57;;;;;;;3.11;76.14;97620.91;4826028;29;20128;-82
2022/02/14 05:52:53;;;;;;;10.10;5.13;;;;;;;3.16;76.13;97619.19;4857252;29;20040;-82
2022/02/14 05:55:18;;;;;;;11.88;5.75;;;;;;;3.13;75.94;97627.56;4830277;29;20065;-82
2022/02/14 05:57:43;;;;;;;9.25;4.93;;;;;;;3.16;75.61;97619.19;4857985;29;20451;-82
2022/02/14 06:00:09;;;;;;;10.60;5.25;;;;;;;3.08;76.02;97606.34;4829247;29;20504;-82
2022/02/14 06:02:36;;;;;;;7.45;4.75;;;;;;;3.17;76.14;97620.78;4855611;29;20033;-82
2022/02/14 06:05:01;;;;;;;8.75;5.25;;;;;;;3.16;76.07;97616.56;4843185;29;20037;-82
2022/02/14 06:07:26;;;;;;;12.98;5.60;;;;;;;3.18;75.90;97621.59;4841686;29;20037;-82
2022/02/14 06:09:52;;;;;;;9.63;4.97;;;;;;;3.20;76.16;97620.31;4850025;29;20033;-82
2022/02/14 06:12:17;;;;;;;8.80;5.25;;;;;;;3.11;76.36;97620.91;4872357;29;20116;-82
2022/02/14 06:14:42;;;;;;;12.50;5.95;;;;;;;3.09;76.06;97612.41;4840020;29;20041;-82
2022/02/14 06:17:08;;;;;;;6.85;5.28;;;;;;;3.11;76.27;97613.00;4826961;29;20082;-82
2022/02/14 06:19:33;;;;;;;6.93;5.55;;;;;;;3.11;76.05;97620.91;4854474;29;20494;-82
2022/02/14 06:21:58;;;;;;;8.05;4.50;;;;;;;3.12;76.25;97617.25;4857182;29;20120;-81
2022/02/14 06:24:23;;;;;;;6.95;4.65;;;;;;;3.13;76.06;97608.28;4853407;29;20034;-82
2022/02/14 06:26:49;;;;;;;7.13;4.97;;;;;;;3.14;75.92;97626.53;4849854;29;20028;-81
2022/02/14 06:29:14;;;;;;;7.78;5.53;;;;;;;3.16;76.42;97624.47;4857376;29;20026;-82
2022/02/14 06:31:39;;;;;;;7.75;5.43;;;;;;;3.22;76.12;97635.91;4852979;29;20044;-82
2022/02/14 06:34:05;;;;;;;6.75;4.63;;;;;;;3.20;75.98;97637.97;4866476;29;20567;-82
2022/02/14 06:36:31;;;;;;;5.53;4.68;;;;;;;3.15;75.96;97628.13;4855727;29;20276;-82
2022/02/14 06:38:59;;;;;;;9.05;5.60;;;;;;;3.18;76.02;97634.75;4868168;29;20486;-82
2022/02/14 06:41:26;;;;;;;9.80;5.13;;;;;;;3.25;76.13;97636.25;4857513;29;20046;-83
2022/02/14 06:43:53;;;;;;;9.57;4.88;;;;;;;3.27;76.00;97638.66;4859056;29;20044;-83
2022/02/14 06:46:19;;;;;;;9.50;4.97;;;;;;;3.18;76.28;97611.84;4857056;29;20048;-82
2022/02/14 06:48:44;;;;;;;7.07;4.35;;;;;;;3.16;75.95;97605.19;4855863;29;20041;-82
2022/02/14 06:51:11;;;;;;;12.85;5.22;;;;;;;3.28;75.96;97621.78;4870490;29;20049;-82
2022/02/14 06:53:37;;;;;;;8.77;5.82;;;;;;;3.31;75.74;97616.06;4857940;29;20174;-82
2022/02/14 06:56:05;;;;;;;7.32;4.68;;;;;;;3.20;75.53;97603.69;4860565;29;20457;-82
2022/02/14 06:58:33;;;;;;;7.55;5.40;;;;;;;3.26;75.79;97610.69;4854645;29;20479;-82
2022/02/14 07:00:58;;;;;;;8.73;6.32;;;;;;;3.18;75.49;97611.03;4843953;29;20113;-82
2022/02/14 07:03:23;;;;;;;5.88;4.88;;;;;;;3.18;75.94;97606.56;4844756;29;20063;-82
2022/02/14 07:05:48;;;;;;;8.18;5.53;;;;;;;3.27;75.73;97602.56;4844417;29;20057;-82
2022/02/14 07:08:14;;;;;;;8.07;4.93;;;;;;;3.34;75.66;97600.56;4843185;29;20042;-82
2022/02/14 07:10:39;;;;;;;8.23;5.47;;;;;;;3.34;75.37;97612.97;4871682;29;20034;-82
2022/02/14 07:13:04;;;;;;;8.90;6.05;;;;;;;3.28;75.43;97600.69;4856475;29;20093;-82
2022/02/14 07:15:30;;;;;;;11.93;5.80;;;;;;;3.39;75.22;97620.97;4826012;29;20030;-82
2022/02/14 07:17:55;;;;;;;10.27;5.40;;;;;;;3.40;75.08;97619.94;4856859;29;20033;-82
2022/02/14 07:20:21;;;;;;;9.15;5.60;;;;;;;3.32;75.41;97599.22;4860794;29;20037;-82
2022/02/14 07:22:46;;;;;;;12.00;7.03;;;;;;;3.37;74.90;97601.94;4842696;29;20044;-81
2022/02/14 07:25:13;;;;;;;10.27;5.68;;;;;;;3.38;75.60;97604.38;4842585;29;20037;-82
2022/02/14 07:27:39;;;;;;;9.63;6.22;;;;;;;3.29;76.11;97605.75;4839196;29;20038;-82
2022/02/14 07:30:07;;;;;;;9.48;6.20;;;;;;;3.27;75.76;97613.09;4856038;29;20474;-81
2022/02/14 07:32:32;;;;;;;6.90;4.88;;;;;;;3.19;75.85;97592.34;4839065;29;20041;-81
2022/02/14 07:34:58;;;;;;;7.80;5.20;;;;;;;3.23;76.22;97603.25;4841235;29;20048;-81
2022/02/14 07:37:24;;;;;;;7.13;4.57;;;;;;;3.17;76.54;97593.63;4858726;29;20064;-82
2022/02/14 07:39:50;;;;;;;7.03;5.45;;;;;;;3.29;77.15;97608.41;4874359;29;20532;-81
2022/02/14 07:42:15;;;;;;;7.95;4.53;;;;;;;3.24;77.15;97599.56;4859984;29;20112;-82
2022/02/14 07:44:40;;;;;;;9.90;4.25;;;;;;;3.34;77.01;97607.69;4859856;29;20121;-82
2022/02/14 07:47:06;;;;;;;10.73;4.68;;;;;;;3.31;77.11;97605.50;4859455;29;20064;-82
2022/02/14 07:49:31;;;;;;;5.47;4.40;;;;;;;3.41;77.26;97605.72;4859177;29;20033;-82
2022/02/14 07:51:57;;;;;;;10.27;4.88;;;;;;;3.42;76.73;97602.06;4843223;29;20030;-81
2022/02/14 07:54:22;;;;;;;7.25;4.88;;;;;;;3.39;77.36;97600.69;4829168;29;20030;-82
2022/02/14 07:56:48;;;;;;;9.82;5.65;;;;;;;3.42;76.91;97589.69;4870889;29;20086;-81
2022/02/14 07:59:13;;;;;;;8.23;5.50;;;;;;;3.48;77.10;97599.28;4856656;29;20120;-82
2022/02/14 08:01:38;;;;;;;9.43;5.05;;;;;;;3.47;77.32;97588.97;4856594;29;21237;-81
2022/02/14 08:04:05;;;;;;;7.03;4.95;;;;;;;3.51;77.29;97598.81;4860501;29;20048;-81
2022/02/14 08:06:31;;;;;;;13.05;5.28;;;;;;;3.52;77.71;97587.22;4855766;29;20049;-82
2022/02/14 08:08:56;;;;;;;8.52;5.72;;;;;;;3.52;77.38;97587.22;4855681;29;20120;-82
2022/02/14 08:11:21;;;;;;;9.05;5.00;;;;;;;3.56;77.84;97587.56;4856766;29;20041;-82
2022/02/14 08:13:47;;;;;;;9.65;5.43;;;;;;;3.53;77.66;97578.28;4872294;29;20121;-82
2022/02/14 08:16:12;;;;;;;7.88;5.20;;;;;;;3.54;77.22;97568.53;4842172;29;20128;-82
2022/02/14 08:18:38;;;;;;;8.73;5.45;;;;;;;3.73;77.71;97578.66;4844251;29;20045;-82
2022/02/14 08:21:03;;;;;;;8.60;4.93;;;;;;;3.77;77.13;97573.72;4860049;29;20036;-82
2022/02/14 08:23:29;;;;;;;11.20;5.53;;;;;;;3.75;77.42;97566.06;4854349;29;20029;-82
2022/02/14 08:25:55;;;;;;;12.25;5.90;;;;;;;3.90;77.33;97584.00;4859938;29;20405;-82
2022/02/14 08:28:22;;;;;;;8.55;4.72;;;;;;;3.84;77.19;97574.38;4854714;29;20048;-82
2022/02/14 08:30:48;;;;;;;11.75;5.35;;;;;;;3.92;77.67;97576.63;4857478;29;20420;-82
2022/02/14 08:33:13;;;;;;;7.90;5.63;;;;;;;4.04;77.35;97585.28;4858552;29;20402;-82
2022/02/14 08:35:39;;;;;;;8.45;5.53;;;;;;;4.00;77.26;97576.25;4842739;29;20040;-82
2022/02/14 08:38:04;;;;;;;13.68;6.38;;;;;;;4.14;77.49;97590.75;4858449;29;20479;-82
2022/02/14 08:40:30;;;;;;;12.93;7.15;;;;;;;4.15;77.41;97571.22;4841862;29;20057;-82
2022/02/14 08:42:58;;;;;;;11.50;7.22;;;;;;;4.31;76.71;97599.50;4851430;29;20168;-82
2022/02/14 08:45:24;;;;;;;9.88;6.85;;;;;;;4.35;76.88;97595.34;4856738;29;20026;-82
2022/02/14 08:47:50;;;;;;;13.65;6.57;;;;;;;4.32;76.62;97581.81;4856968;29;20117;-81
2022/02/14 08:50:15;;;;;;;13.75;6.45;;;;;;;4.41;76.07;97583.81;4826065;29;20041;-81
2022/02/14 08:52:41;;;;;;;9.90;6.05;;;;;;;4.48;76.48;97584.44;4855831;29;20093;-82
2022/02/14 08:55:08;;;;;;;10.38;5.97;;;;;;;4.46;76.27;97585.72;4862795;29;20466;-81
2022/02/14 08:57:34;;;;;;;9.77;6.00;;;;;;;4.57;76.18;97596.22;4852041;29;20093;-81
2022/02/14 08:59:59;;;;;;;13.20;7.18;;;;;;;4.62;75.74;97592.06;4855587;29;20037;-81
2022/02/14 09:02:25;;;;;;;9.02;6.70;;;;;;;4.53;76.13;97587.19;4855395;29;20081;-81
2022/02/14 09:04:50;;;;;;;12.20;6.03;;;;;;;4.65;75.81;97602.16;4841635;29;20055;-82
2022/02/14 09:07:15;;;;;;;12.05;6.28;;;;;;;4.64;75.82;97595.25;4839734;29;20067;-81
2022/02/14 09:09:41;;;;;;;12.07;5.25;;;;;;;4.72;75.36;97600.16;4859973;29;20041;-82
2022/02/14 09:12:06;;;;;;;10.60;5.43;;;;;;;4.73;75.76;97605.19;4860561;29;20042;-81
2022/02/14 09:14:32;;;;;;;8.00;4.57;;;;;;;4.71;75.71;97606.47;4859968;29;20048;-81
2022/02/14 09:16:58;;;;;;;9.27;5.15;;;;;;;4.71;76.13;97593.25;4844411;29;20041;-81
2022/02/14 09:19:25;;;;;;;10.73;5.38;;;;;;;4.80;76.13;97589.16;4844666;29;20033;-81
2022/02/14 09:21:50;;;;;;;10.10;5.15;;;;;;;4.84;75.84;97585.00;4857596;29;20076;-81
2022/02/14 09:24:16;;;;;;;9.02;5.80;;;;;;;4.90;76.16;97589.28;4865808;29;20062;-81
2022/02/14 09:26:43;;;;;;;8.32;5.03;;;;;;;4.90;76.18;97594.59;4843476;29;20045;-81
2022/02/14 09:29:09;;;;;;;11.77;6.45;;;;;;;4.86;75.58;97591.63;4855708;29;20052;-81
2022/02/14 09:31:37;;;;;;;12.98;4.85;;;;;;;4.91;75.69;97597.00;4858702;29;20034;-81
2022/02/14 09:34:02;;;;;;;10.25;4.90;;;;;;;4.97;76.64;97611.91;4858522;29;20033;-80
2022/02/14 09:36:28;;;;;;;11.45;4.47;;;;;;;5.00;77.19;97608.75;4860996;29;20092;-81
2022/02/14 09:38:53;;;;;;;12.00;5.00;;;;;;;5.07;77.29;97605.94;4843181;29;20030;-81
2022/02/14 09:41:18;;;;;;;8.60;4.55;;;;;;;5.18;76.93;97597.09;4841442;29;20041;-81
2022/02/14 09:43:44;;;;;;;9.10;4.20;;;;;;;5.22;76.98;97598.22;4861154;29;20029;-81
2022/02/14 09:46:11;;;;;;;9.30;4.43;;;;;;;5.20;76.97;97593.16;4860124;29;20425;-81
2022/02/14 09:48:41;;;;;;;8.95;4.60;;;;;;;5.34;76.44;97598.91;4843285;29;20029;-81
2022/02/14 09:51:07;;;;;;;9.52;5.32;;;;;;;5.36;76.59;97582.78;4858809;29;20468;-81
2022/02/14 09:53:33;;;;;;;8.65;4.95;;;;;;;5.48;76.33;97605.44;4840954;29;20048;-81
2022/02/14 09:55:58;;;;;;;14.80;4.95;;;;;;;5.52;76.97;97605.75;4870697;29;20480;-81
2022/02/14 09:58:24;;;;;;;9.25;4.75;;;;;;;5.51;76.30;97604.13;4856455;29;20113;-81
2022/02/14 10:00:49;;;;;;;8.30;5.18;;;;;;;5.62;76.19;97606.66;4871453;29;20034;-81
2022/02/14 10:03:18;;;;;;;12.57;5.38;;;;;;;5.67;75.96;97612.00;4855024;29;20150;-81
2022/02/14 10:05:48;;;;;;;11.15;4.65;;;;;;;5.62;75.61;97598.72;4841459;29;20033;-81
2022/02/14 10:08:31;;;;;;;9.75;5.50;;;;;;;5.76;75.37;97618.47;4853578;29;20121;-81
2022/02/14 10:11:21;;;;;;;7.55;5.32;;;;;;;5.78;75.42;97608.44;4839933;29;20401;-81
2022/02/14 10:13:50;;;;;;;10.30;5.32;;;;;;;5.83;75.06;97597.09;4854663;29;20120;-81
2022/02/14 10:16:17;;;;;;;8.15;5.30;;;;;;;5.91;75.85;97616.03;4840342;29;20041;-81
2022/02/14 10:18:43;;;;;;;8.63;5.80;;;;;;;5.95;75.41;97605.72;4838805;29;20133;-81
2022/02/14 10:21:23;;;;;;;8.40;4.75;;;;;;;5.89;75.17;97596.94;4852833;29;20132;-81
2022/02/14 10:24:01;;;;;;;9.77;5.15;;;;;;;6.01;75.44;97600.22;4836119;29;20033;-81
2022/02/14 10:26:31;;;;;;;10.90;4.68;;;;;;;6.01;75.31;97597.59;4853378;29;20040;-81
2022/02/14 10:28:56;;;;;;;6.82;4.80;;;;;;;6.06;75.37;97602.13;4871319;29;20081;-81
2022/02/14 10:31:22;;;;;;;6.15;4.30;;;;;;;6.03;75.23;97587.53;4853914;29;20718;-81
2022/02/14 10:33:57;;;;;;;6.80;4.93;;;;;;;6.10;75.18;97594.47;4858389;29;20033;-81
2022/02/14 10:36:24;;;;;;;7.43;4.43;;;;;;;6.17;74.74;97603.84;4858853;29;20393;-81
2022/02/14 10:38:49;;;;;;;8.43;4.63;;;;;;;6.23;75.14;97597.53;4874448;29;20367;-81
2022/02/14 10:41:15;;;;;;;10.55;4.43;;;;;;;6.18;75.23;97581.56;4873822;29;20034;-81
2022/02/14 10:43:41;;;;;;;7.57;4.03;;;;;;;6.29;74.56;97587.78;4859562;29;20046;-81
2022/02/14 10:46:06;;;;;;;13.13;5.28;;;;;;;6.31;75.02;97580.38;4872048;29;20124;-81
2022/02/14 10:48:39;;;;;;;7.40;4.25;;;;;;;6.31;74.92;97572.44;4852594;29;20181;-81
2022/02/14 10:51:05;;;;;;;7.47;3.90;;;;;;;6.37;74.85;97589.97;4860575;29;20033;-81
2022/02/14 10:53:42;;;;;;;6.65;3.97;;;;;;;6.41;75.12;97583.91;4862575;29;20512;-81
2022/02/14 10:56:07;;;;;;;9.07;3.88;;;;;;;6.47;75.19;97596.16;4861263;29;20089;-81
2022/02/14 10:58:33;;;;;;;7.45;3.95;;;;;;;6.47;74.77;97582.09;4829791;29;20035;-81
2022/02/14 11:00:58;;;;;;;8.90;4.32;;;;;;;6.49;75.07;97588.75;4840799;29;20157;-81
2022/02/14 11:03:24;;;;;;;7.28;3.42;;;;;;;6.56;75.29;97556.72;4860165;29;20038;-81
2022/02/14 11:05:52;;;;;;;5.22;3.53;;;;;;;6.58;75.14;97589.06;4858077;29;21477;-81
2022/02/14 11:08:20;;;;;;;7.32;4.15;;;;;;;6.61;75.67;97580.63;4856651;29;20044;-81
2022/02/14 11:10:48;;;;;;;7.28;4.13;;;;;;;6.71;75.74;97593.94;4853975;29;20085;-81
2022/02/14 11:13:16;;;;;;;5.55;3.38;;;;;;;6.65;75.40;97577.22;4858098;29;20572;-81
2022/02/14 11:15:42;;;;;;;3.83;2.83;;;;;;;6.69;76.30;97585.44;4859441;29;20030;-81
2022/02/14 11:18:12;;;;;;;4.35;3.22;;;;;;;6.77;76.22;97580.47;4857205;29;20034;-81
2022/02/14 11:20:41;;;;;;;3.88;3.20;;;;;;;6.82;76.48;97571.75;4854532;29;20034;-81
2022/02/14 11:23:10;;;;;;;3.92;3.17;;;;;;;6.91;76.94;97583.50;4853075;29;20498;-81
2022/02/14 11:25:59;;;;;;;5.88;3.03;;;;;;;6.99;76.56;97577.69;4856353;29;20111;-81
2022/02/14 11:28:45;;;;;;;6.45;3.30;;;;;;;7.08;75.92;97576.16;4878592;29;20029;-81
2022/02/14 11:31:19;;;;;;;5.18;3.38;;;;;;;7.10;76.21;97574.03;4861895;29;20108;-81
2022/02/14 11:33:55;;;;;;;5.53;3.03;;;;;;;7.15;75.44;97582.03;4855473;29;20624;-80
2022/02/14 11:36:22;;;;;;;4.32;3.05;;;;;;;7.23;75.67;97576.25;4858180;29;20068;-80
2022/02/14 11:39:01;;;;;;;7.30;4.05;;;;;;;7.21;76.50;97577.56;4860228;29;20041;-81